createdAt,value
2023-02-08T00:02:52.536Z,102527.28
2023-02-08T00:05:55.587Z,102531.19
2023-02-08T00:08:57.342Z,102519.84
2023-02-08T00:11:59.032Z,102525.22
2023-02-08T00:15:00.716Z,102527.56
2023-02-08T00:18:02.417Z,102527.94
2023-02-08T00:21:09.929Z,102525.31
2023-02-08T00:24:11.673Z,102524.66
2023-02-08T00:27:13.453Z,102521.81
2023-02-08T00:30:15.254Z,102519.03
2023-02-08T00:33:17.111Z,102520.66
2023-02-08T00:36:20.332Z,102516.94
2023-02-08T00:39:22.055Z,102512.47
2023-02-08T00:42:23.792Z,102518.47
2023-02-08T00:45:25.560Z,102514.44
2023-02-08T00:48:27.993Z,102512.34
2023-02-08T00:51:31.325Z,102515.41
2023-02-08T00:54:32.967Z,102517.00
2023-02-08T00:57:35.406Z,102521.03
2023-02-08T01:00:37.210Z,102526.94
2023-02-08T01:03:43.217Z,102521.53
2023-02-08T01:06:46.260Z,102521.16
2023-02-08T01:09:48.036Z,102520.66
2023-02-08T01:12:49.786Z,102520.59
2023-02-08T01:15:51.475Z,102529.25
2023-02-08T01:18:54.970Z,102525.44
2023-02-08T01:21:58.054Z,102524.09
2023-02-08T01:25:01.017Z,102517.16
2023-02-08T01:28:02.770Z,102509.81
2023-02-08T01:31:06.982Z,102508.88
2023-02-08T01:34:10.179Z,102508.88
2023-02-08T01:37:13.159Z,102510.47
2023-02-08T01:40:14.823Z,102504.13
2023-02-08T01:43:21.866Z,102506.03
2023-02-08T01:46:23.640Z,102505.66
2023-02-08T01:49:28.265Z,102495.13
2023-02-08T01:52:31.509Z,102503.00
2023-02-08T01:55:38.393Z,102511.75
2023-02-08T01:58:44.737Z,102496.75
2023-02-08T02:01:51.308Z,102491.19
2023-02-08T02:04:53.329Z,102497.13
2023-02-08T02:07:57.698Z,102484.56
2023-02-08T02:11:01.537Z,102489.50
2023-02-08T02:14:04.162Z,102488.53
2023-02-08T02:17:06.515Z,102482.25
2023-02-08T02:20:18.281Z,102488.25
2023-02-08T02:24:04.180Z,102475.81
2023-02-08T02:27:19.650Z,102478.38
2023-02-08T02:31:00.024Z,102471.25
2023-02-08T02:34:09.757Z,102467.72
2023-02-08T02:37:37.692Z,102468.47
2023-02-08T02:40:48.308Z,102469.81
2023-02-08T02:43:55.074Z,102461.72
2023-02-08T02:47:03.637Z,102470.69
2023-02-08T02:50:15.740Z,102466.84
2023-02-08T02:53:24.114Z,102480.19
2023-02-08T02:56:30.816Z,102464.59
2023-02-08T02:59:33.695Z,102462.50
2023-02-08T03:02:36.047Z,102457.00
2023-02-08T03:05:39.168Z,102456.03
2023-02-08T03:09:01.890Z,102451.00
2023-02-08T03:12:16.432Z,102453.19
2023-02-08T03:15:28.719Z,102454.03
2023-02-08T03:18:37.008Z,102449.19
2023-02-08T03:21:46.916Z,102449.09
2023-02-08T03:24:54.501Z,102451.09
2023-02-08T03:28:04.224Z,102452.25
2023-02-08T03:31:13.006Z,102452.72
2023-02-08T03:34:19.484Z,102448.91
2023-02-08T03:37:27.304Z,102452.53
2023-02-08T03:40:35.401Z,102451.56
2023-02-08T03:43:41.860Z,102450.44
2023-02-08T03:46:48.578Z,102452.63
2023-02-08T03:49:52.842Z,102455.84
2023-02-08T03:52:56.816Z,102463.53
2023-02-08T03:56:04.514Z,102455.56
2023-02-08T03:59:11.309Z,102458.31
2023-02-08T04:02:17.437Z,102459.06
2023-02-08T04:05:20.241Z,102462.97
2023-02-08T04:08:25.895Z,102457.75
2023-02-08T04:11:27.773Z,102454.88
2023-02-08T04:14:29.484Z,102452.34
2023-02-08T04:17:32.267Z,102447.31
2023-02-08T04:20:34.007Z,102442.44
2023-02-08T04:23:37.029Z,102444.59
2023-02-08T04:26:38.798Z,102448.44
2023-02-08T04:29:41.624Z,102436.44
2023-02-08T04:32:43.302Z,102436.16
2023-02-08T04:35:44.960Z,102435.78
2023-02-08T04:38:47.987Z,102442.69
2023-02-08T04:41:49.728Z,102441.66
2023-02-08T04:44:51.941Z,102446.22
2023-02-08T04:47:53.989Z,102451.47
2023-02-08T04:50:56.731Z,102448.50
2023-02-08T04:53:59.753Z,102456.19
2023-02-08T04:57:01.442Z,102454.22
2023-02-08T05:00:04.815Z,102450.47
2023-02-08T05:03:06.524Z,102455.84
2023-02-08T05:06:08.295Z,102447.25
2023-02-08T05:09:11.307Z,102443.41
2023-02-08T05:12:13.114Z,102445.13
2023-02-08T05:15:14.795Z,102453.28
2023-02-08T05:18:16.514Z,102450.72
2023-02-08T05:21:18.189Z,102453.72
2023-02-08T05:24:21.288Z,102457.47
2023-02-08T05:27:23.076Z,102451.44
2023-02-08T05:30:24.827Z,102447.78
2023-02-08T05:33:26.544Z,102448.88
2023-02-08T05:36:28.410Z,102440.75
2023-02-08T05:39:31.470Z,102442.47
2023-02-08T05:42:33.168Z,102443.97
2023-02-08T05:45:34.786Z,102447.09
2023-02-08T05:48:36.679Z,102457.84
2023-02-08T05:51:38.354Z,102446.16
2023-02-08T05:54:41.372Z,102449.59
2023-02-08T05:57:43.011Z,102453.31
2023-02-08T06:00:45.230Z,102446.44
2023-02-08T06:03:47.246Z,102454.66
2023-02-08T06:06:49.033Z,102460.34
2023-02-08T06:09:52.233Z,102458.16
2023-02-08T06:12:53.927Z,102454.44
2023-02-08T06:15:55.834Z,102464.72
2023-02-08T06:18:57.754Z,102464.28
2023-02-08T06:21:59.573Z,102459.34
2023-02-08T06:25:02.732Z,102464.47
2023-02-08T06:28:04.909Z,102467.56
2023-02-08T06:31:06.685Z,102468.84
2023-02-08T06:34:08.391Z,102464.28
2023-02-08T06:37:10.083Z,102467.63
2023-02-08T06:40:13.164Z,102473.06
2023-02-08T06:43:16.404Z,102476.56
2023-02-08T06:46:18.141Z,102476.28
2023-02-08T06:49:20.056Z,102475.13
2023-02-08T06:52:22.074Z,102475.81
2023-02-08T06:55:25.133Z,102477.16
2023-02-08T06:58:27.146Z,102483.50
2023-02-08T07:01:28.936Z,102478.47
2023-02-08T07:04:30.963Z,102477.84
2023-02-08T07:07:32.723Z,102482.22
2023-02-08T07:10:38.684Z,102490.28
2023-02-08T07:13:40.642Z,102478.00
2023-02-08T07:16:43.577Z,102475.66
2023-02-08T07:19:45.402Z,102478.94
2023-02-08T07:22:47.107Z,102469.69
2023-02-08T07:25:58.488Z,102472.81
2023-02-08T07:29:00.261Z,102468.25
2023-02-08T07:32:03.359Z,102469.97
2023-02-08T07:35:05.563Z,102457.06
2023-02-08T07:38:07.249Z,102466.66
2023-02-08T07:41:12.553Z,102466.19
2023-02-08T07:44:14.218Z,102468.34
2023-02-08T07:47:17.062Z,102468.31
2023-02-08T07:50:19.228Z,102473.34
2023-02-08T07:53:20.901Z,102469.78
2023-02-08T07:56:24.196Z,102463.63
2023-02-08T07:59:25.987Z,102466.09
2023-02-08T08:02:27.731Z,102461.06
2023-02-08T08:05:29.491Z,102460.41
2023-02-08T08:08:31.188Z,102465.91
2023-02-08T08:11:34.198Z,102466.47
2023-02-08T08:14:35.908Z,102468.97
2023-02-08T08:17:39.345Z,102466.13
2023-02-08T08:20:41.391Z,102467.19
2023-02-08T08:23:43.286Z,102471.44
2023-02-08T08:26:46.462Z,102465.88
2023-02-08T08:29:48.369Z,102476.56
2023-02-08T08:32:50.152Z,102469.09
2023-02-08T08:35:51.949Z,102465.72
2023-02-08T08:38:53.693Z,102460.75
2023-02-08T08:41:59.388Z,102471.16
2023-02-08T08:45:01.091Z,102454.13
2023-02-08T08:48:04.035Z,102454.84
2023-02-08T08:51:06.563Z,102464.31
2023-02-08T08:54:08.841Z,102455.72
2023-02-08T08:57:11.983Z,102458.94
2023-02-08T09:00:14.834Z,102451.41
2023-02-08T09:03:16.654Z,102450.84
2023-02-08T09:06:18.759Z,102451.25
2023-02-08T09:09:21.489Z,102456.28
2023-02-08T09:12:24.613Z,102455.59
2023-02-08T09:15:26.407Z,102446.38
2023-02-08T09:18:28.151Z,102446.03
2023-02-08T09:21:30.142Z,102453.34
2023-02-08T09:24:31.899Z,102453.03
2023-02-08T09:27:35.516Z,102449.41
2023-02-08T09:30:37.236Z,102447.44
2023-02-08T09:33:39.341Z,102454.03
2023-02-08T09:36:41.530Z,102448.13
2023-02-08T09:39:43.937Z,102451.25
2023-02-08T09:42:54.066Z,102449.59
2023-02-08T09:46:00.543Z,102450.28
2023-02-08T09:49:05.418Z,102447.50
2023-02-08T09:52:13.271Z,102445.97
2023-02-08T09:55:25.290Z,102441.16
2023-02-08T09:58:34.253Z,102442.38
2023-02-08T10:01:36.601Z,102446.22
2023-02-08T10:04:51.522Z,102441.06
2023-02-08T10:07:53.681Z,102436.31
2023-02-08T10:10:59.790Z,102434.34
2023-02-08T10:14:27.469Z,102428.25
2023-02-08T10:17:58.148Z,102434.22
2023-02-08T10:21:24.691Z,102422.66
2023-02-08T10:24:42.049Z,102418.34
2023-02-08T10:27:55.178Z,102415.13
2023-02-08T10:31:05.394Z,102414.47
2023-02-08T10:34:17.674Z,102413.03
2023-02-08T10:37:21.647Z,102411.19
2023-02-08T10:40:31.925Z,102400.88
2023-02-08T10:43:40.461Z,102396.66
2023-02-08T10:46:47.844Z,102389.09
2023-02-08T10:49:57.861Z,102386.88
2023-02-08T10:52:59.827Z,102392.03
2023-02-08T10:56:01.822Z,102388.53
2023-02-08T10:59:13.553Z,102380.81
2023-02-08T11:02:22.947Z,102386.06
2023-02-08T11:05:33.133Z,102377.59
2023-02-08T11:08:55.266Z,102387.38
2023-02-08T11:11:59.102Z,102378.13
2023-02-08T11:15:00.948Z,102373.69
2023-02-08T11:18:06.294Z,102364.94
2023-02-08T11:21:10.596Z,102355.72
2023-02-08T11:24:27.048Z,102355.66
2023-02-08T11:27:35.022Z,102351.91
2023-02-08T11:30:37.034Z,102342.72
2023-02-08T11:34:04.443Z,102341.22
2023-02-08T11:37:14.680Z,102337.91
2023-02-08T11:40:21.619Z,102324.16
2023-02-08T11:43:26.584Z,102327.75
2023-02-08T11:46:32.104Z,102318.34
2023-02-08T11:49:39.399Z,102321.72
2023-02-08T11:52:43.242Z,102322.53
2023-02-08T11:55:45.174Z,102315.25
2023-02-08T11:59:02.650Z,102310.75
2023-02-08T12:02:18.450Z,102303.38
2023-02-08T12:05:35.002Z,102303.13
2023-02-08T12:08:43.157Z,102307.03
2023-02-08T12:11:46.153Z,102300.66
2023-02-08T12:14:57.323Z,102299.63
2023-02-08T12:18:19.137Z,102297.06
2023-02-08T12:21:26.688Z,102292.94
2023-02-08T12:24:43.097Z,102279.72
2023-02-08T12:27:54.114Z,102282.66
2023-02-08T12:31:05.972Z,102275.84
2023-02-08T12:34:13.920Z,102272.59
2023-02-08T12:37:49.151Z,102267.59
2023-02-08T12:41:01.333Z,102256.72
2023-02-08T12:44:13.931Z,102245.06
2023-02-08T12:47:33.437Z,102256.75
2023-02-08T12:50:42.012Z,102253.59
2023-02-08T12:53:49.020Z,102253.91
2023-02-08T12:57:01.661Z,102244.16
2023-02-08T13:00:07.728Z,102237.91
2023-02-08T13:03:20.650Z,102238.63
2023-02-08T13:06:27.249Z,102230.50
2023-02-08T13:09:39.466Z,102219.50
2023-02-08T13:12:45.808Z,102225.38
2023-02-08T13:15:56.302Z,102214.34
2023-02-08T13:19:18.255Z,102214.53
2023-02-08T13:22:21.541Z,102208.50
2023-02-08T13:25:30.014Z,102211.19
2023-02-08T13:28:34.372Z,102206.56
2023-02-08T13:31:41.512Z,102206.22
2023-02-08T13:34:46.744Z,102207.31
2023-02-08T13:37:52.277Z,102192.16
2023-02-08T13:41:16.339Z,102193.44
2023-02-08T13:44:20.652Z,102187.31
2023-02-08T13:47:25.488Z,102177.19
2023-02-08T13:50:43.660Z,102176.91
2023-02-08T13:54:12.239Z,102170.22
2023-02-08T13:57:52.311Z,102184.72
2023-02-08T14:01:17.296Z,102168.16
2023-02-08T14:04:37.513Z,102168.47
2023-02-08T14:07:45.807Z,102176.41
2023-02-08T14:11:00.393Z,102158.56
2023-02-08T14:14:12.792Z,102161.38
2023-02-08T14:17:23.583Z,102164.91
2023-02-08T14:20:28.201Z,102155.81
2023-02-08T14:23:31.403Z,102154.81
2023-02-08T14:26:34.801Z,102149.22
2023-02-08T14:29:38.395Z,102144.94
2023-02-08T14:32:43.362Z,102142.97
2023-02-08T14:35:54.144Z,102143.84
2023-02-08T14:39:24.365Z,102143.59
2023-02-08T14:42:55.034Z,102140.94
2023-02-08T14:46:18.924Z,102138.09
2023-02-08T14:49:39.504Z,102136.31
2023-02-08T14:52:46.592Z,102140.31
2023-02-08T14:55:52.105Z,102128.47
2023-02-08T14:58:57.121Z,102117.69
2023-02-08T15:02:01.424Z,102118.97
2023-02-08T15:05:09.761Z,102109.84
2023-02-08T15:08:13.176Z,102114.03
2023-02-08T15:11:21.673Z,102114.06
2023-02-08T15:14:23.809Z,102111.00
2023-02-08T15:17:34.134Z,102111.69
2023-02-08T15:20:36.622Z,102108.53
2023-02-08T15:23:38.454Z,102117.47
2023-02-08T15:26:45.243Z,102098.22
2023-02-08T15:29:48.684Z,102103.09
2023-02-08T15:32:52.109Z,102111.44
2023-02-08T15:35:59.962Z,102111.50
2023-02-08T15:39:09.178Z,102103.94
2023-02-08T15:42:16.474Z,102095.72
2023-02-08T15:45:24.591Z,102099.16
2023-02-08T15:48:29.184Z,102098.06
2023-02-08T15:51:31.065Z,102088.03
2023-02-08T15:54:33.291Z,102094.38
2023-02-08T15:57:39.565Z,102100.09
2023-02-08T16:00:44.352Z,102103.50
2023-02-08T16:03:50.418Z,102110.78
2023-02-08T16:06:55.302Z,102113.72
2023-02-08T16:09:57.821Z,102100.09
2023-02-08T16:13:02.498Z,102110.94
2023-02-08T16:16:19.574Z,102110.75
2023-02-08T16:19:26.077Z,102114.81
2023-02-08T16:22:31.880Z,102116.22
2023-02-08T16:25:37.771Z,102115.56
2023-02-08T16:28:39.903Z,102119.56
2023-02-08T16:31:44.888Z,102118.16
2023-02-08T16:34:48.168Z,102122.41
2023-02-08T16:37:55.726Z,102125.00
2023-02-08T16:41:11.894Z,102131.84
2023-02-08T16:44:23.828Z,102126.59
2023-02-08T16:47:28.190Z,102127.03
2023-02-08T16:50:31.304Z,102129.31
2023-02-08T16:53:42.003Z,102134.38
2023-02-08T16:56:46.583Z,102138.00
2023-02-08T16:59:48.113Z,102135.94
2023-02-08T17:02:50.400Z,102133.88
2023-02-08T17:05:53.839Z,102136.22
2023-02-08T17:08:56.017Z,102136.75
2023-02-08T17:11:57.793Z,102141.25
2023-02-08T17:14:59.611Z,102139.56
2023-02-08T17:18:01.887Z,102144.25
2023-02-08T17:21:05.546Z,102140.94
2023-02-08T17:24:07.439Z,102143.13
2023-02-08T17:27:12.504Z,102148.84
2023-02-08T17:30:19.907Z,102144.94
2023-02-08T17:33:21.722Z,102149.03
2023-02-08T17:36:24.889Z,102144.56
2023-02-08T17:39:26.781Z,102139.38
2023-02-08T17:42:28.544Z,102142.06
2023-02-08T17:45:30.718Z,102141.88
2023-02-08T17:48:32.444Z,102146.06
2023-02-08T17:51:35.584Z,102150.91
2023-02-08T17:54:37.641Z,102144.88
2023-02-08T17:57:41.238Z,102145.69
2023-02-08T18:00:43.610Z,102145.31
2023-02-08T18:03:46.417Z,102153.44
2023-02-08T18:06:49.542Z,102150.50
2023-02-08T18:09:51.347Z,102145.22
2023-02-08T18:12:53.159Z,102153.06
2023-02-08T18:15:54.931Z,102155.06
2023-02-08T18:18:57.806Z,102154.63
2023-02-08T18:22:03.748Z,102150.66
2023-02-08T18:25:06.423Z,102160.97
2023-02-08T18:28:08.177Z,102150.78
2023-02-08T18:31:14.420Z,102146.50
2023-02-08T18:34:17.057Z,102151.00
2023-02-08T18:37:21.672Z,102154.03
2023-02-08T18:40:23.463Z,102145.91
2023-02-08T18:43:27.280Z,102147.19
2023-02-08T18:46:29.584Z,102146.69
2023-02-08T18:49:31.427Z,102142.25
2023-02-08T18:52:36.710Z,102148.56
2023-02-08T18:55:38.711Z,102148.50
2023-02-08T18:58:40.784Z,102141.88
2023-02-08T19:01:42.493Z,102143.13
2023-02-08T19:04:44.249Z,102146.41
2023-02-08T19:07:47.497Z,102148.25
2023-02-08T19:10:49.277Z,102155.97
2023-02-08T19:13:52.108Z,102152.97
2023-02-08T19:16:54.221Z,102143.91
2023-02-08T19:19:55.964Z,102150.34
2023-02-08T19:22:59.190Z,102150.69
2023-02-08T19:26:02.062Z,102148.81
2023-02-08T19:29:06.535Z,102154.44
2023-02-08T19:32:08.523Z,102147.31
2023-02-08T19:35:10.515Z,102145.56
2023-02-08T19:38:13.685Z,102147.06
2023-02-08T19:41:17.431Z,102154.31
2023-02-08T19:44:20.738Z,102146.09
2023-02-08T19:47:43.498Z,102149.50
2023-02-08T19:50:54.092Z,102148.69
2023-02-08T19:53:58.614Z,102150.03
2023-02-08T19:57:00.438Z,102152.97
2023-02-08T20:00:04.438Z,102156.13
2023-02-08T20:03:21.510Z,102138.38
2023-02-08T20:06:25.393Z,102139.75
2023-02-08T20:09:28.439Z,102141.25
2023-02-08T20:12:30.407Z,102136.03
2023-02-08T20:15:34.164Z,102125.47
2023-02-08T20:18:35.847Z,102133.53
2023-02-08T20:21:40.180Z,102135.84
2023-02-08T20:24:43.220Z,102132.38
2023-02-08T20:27:45.276Z,102124.41
2023-02-08T20:30:47.039Z,102116.91
2023-02-08T20:33:48.987Z,102113.69
2023-02-08T20:37:05.863Z,102103.41
2023-02-08T20:40:11.691Z,102081.72
2023-02-08T20:43:13.457Z,102096.16
2023-02-08T20:46:17.594Z,102099.03
2023-02-08T20:49:21.960Z,102100.78
2023-02-08T20:52:23.782Z,102123.03
2023-02-08T20:55:26.983Z,102102.97
2023-02-08T20:58:28.775Z,102110.19
2023-02-08T21:01:30.976Z,102101.72
2023-02-08T21:04:32.790Z,102102.34
2023-02-08T21:07:34.697Z,102100.59
2023-02-08T21:10:37.862Z,102098.38
2023-02-08T21:13:39.688Z,102098.34
2023-02-08T21:16:41.651Z,102101.78
2023-02-08T21:19:43.354Z,102106.59
2023-02-08T21:22:45.049Z,102107.91
2023-02-08T21:25:48.510Z,102105.72
2023-02-08T21:28:52.931Z,102109.63
2023-02-08T21:31:56.262Z,102114.16
2023-02-08T21:34:58.099Z,102107.56
2023-02-08T21:37:59.820Z,102106.13
2023-02-08T21:41:07.823Z,102100.16
2023-02-08T21:44:10.453Z,102098.56
2023-02-08T21:47:12.138Z,102094.66
2023-02-08T21:50:32.742Z,102091.41
2023-02-08T21:53:53.305Z,102086.66
2023-02-08T21:56:58.002Z,102082.72
2023-02-08T22:00:01.425Z,102085.72
2023-02-08T22:03:03.304Z,102090.63
2023-02-08T22:06:05.460Z,102087.53
2023-02-08T22:09:07.191Z,102080.38
2023-02-08T22:12:15.291Z,102073.75
2023-02-08T22:15:19.354Z,102073.34
2023-02-08T22:18:21.086Z,102074.91
2023-02-08T22:21:22.775Z,102071.88
2023-02-08T22:24:24.681Z,102069.91
2023-02-08T22:27:27.946Z,102074.72
2023-02-08T22:30:29.780Z,102079.91
2023-02-08T22:33:31.679Z,102071.19
2023-02-08T22:36:33.557Z,102082.47
2023-02-08T22:39:35.752Z,102072.78
2023-02-08T22:42:39.744Z,102064.72
2023-02-08T22:45:44.423Z,102063.00
2023-02-08T22:48:46.163Z,102060.97
2023-02-08T22:51:47.871Z,102065.16
2023-02-08T22:54:50.807Z,102069.56
2023-02-08T22:57:54.047Z,102065.16
2023-02-08T23:00:55.827Z,102058.03
2023-02-08T23:03:59.245Z,102058.38
2023-02-08T23:07:01.058Z,102061.13
2023-02-08T23:10:03.187Z,102066.44
2023-02-08T23:13:07.093Z,102060.97
2023-02-08T23:16:12.567Z,102064.03
2023-02-08T23:19:15.266Z,102056.88
2023-02-08T23:22:16.947Z,102044.00
2023-02-08T23:25:19.109Z,102040.13
2023-02-08T23:28:22.374Z,102053.09
2023-02-08T23:31:24.253Z,102044.03
2023-02-08T23:34:26.013Z,102044.88
2023-02-08T23:37:27.813Z,102050.88
2023-02-08T23:40:29.561Z,102048.75
2023-02-08T23:43:32.949Z,102049.00
2023-02-08T23:46:34.824Z,102055.00
2023-02-08T23:49:36.545Z,102058.25
2023-02-08T23:52:38.312Z,102061.94
2023-02-08T23:55:40.072Z,102060.34
2023-02-08T23:58:43.916Z,102063.63
